sensor_id;sensor_type;location;lat;lon;timestamp;temperature;humidity
60868;DHT22;46702;48.370;10.794;2023-06-26T00:00:31;16.00;99.90
60868;DHT22;46702;48.370;10.794;2023-06-26T00:02:58;16.10;99.90
60868;DHT22;46702;48.370;10.794;2023-06-26T00:05:24;16.10;99.90
60868;DHT22;46702;48.370;10.794;2023-06-26T00:07:50;16.20;99.90
60868;DHT22;46702;48.370;10.794;2023-06-26T00:10:15;16.30;99.90
60868;DHT22;46702;48.370;10.794;2023-06-26T00:12:41;16.30;99.90
60868;DHT22;46702;48.370;10.794;2023-06-26T00:15:07;16.20;99.90
60868;DHT22;46702;48.370;10.794;2023-06-26T00:17:33;16.20;99.90
60868;DHT22;46702;48.370;10.794;2023-06-26T00:20:02;16.10;99.90
60868;DHT22;46702;48.370;10.794;2023-06-26T00:22:28;16.00;99.90
60868;DHT22;46702;48.370;10.794;2023-06-26T00:24:54;15.80;99.90
60868;DHT22;46702;48.370;10.794;2023-06-26T00:27:20;15.80;99.90
60868;DHT22;46702;48.370;10.794;2023-06-26T00:29:46;15.70;99.90
60868;DHT22;46702;48.370;10.794;2023-06-26T00:32:11;15.60;99.90
60868;DHT22;46702;48.370;10.794;2023-06-26T00:34:37;15.60;99.90
60868;DHT22;46702;48.370;10.794;2023-06-26T00:37:02;15.70;99.90
60868;DHT22;46702;48.370;10.794;2023-06-26T00:39:29;15.60;99.90
60868;DHT22;46702;48.370;10.794;2023-06-26T00:41:54;15.70;99.90
60868;DHT22;46702;48.370;10.794;2023-06-26T00:44:20;15.70;99.90
60868;DHT22;46702;48.370;10.794;2023-06-26T00:46:46;15.60;99.90
60868;DHT22;46702;48.370;10.794;2023-06-26T00:49:12;15.50;99.90
60868;DHT22;46702;48.370;10.794;2023-06-26T00:51:38;15.60;99.90
60868;DHT22;46702;48.370;10.794;2023-06-26T00:54:04;15.60;99.90
60868;DHT22;46702;48.370;10.794;2023-06-26T00:56:31;15.60;99.90
60868;DHT22;46702;48.370;10.794;2023-06-26T00:58:57;15.70;99.90
60868;DHT22;46702;48.370;10.794;2023-06-26T01:01:22;15.60;99.90
60868;DHT22;46702;48.370;10.794;2023-06-26T01:03:51;15.40;99.90
60868;DHT22;46702;48.370;10.794;2023-06-26T01:06:22;15.40;99.90
60868;DHT22;46702;48.370;10.794;2023-06-26T01:08:49;15.40;99.90
60868;DHT22;46702;48.370;10.794;2023-06-26T01:11:15;15.40;99.90
60868;DHT22;46702;48.370;10.794;2023-06-26T01:13:42;15.40;99.90
60868;DHT22;46702;48.370;10.794;2023-06-26T01:16:09;15.30;99.90
60868;DHT22;46702;48.370;10.794;2023-06-26T01:18:37;15.20;99.90
60868;DHT22;46702;48.370;10.794;2023-06-26T01:21:09;15.20;99.90
60868;DHT22;46702;48.370;10.794;2023-06-26T01:23:39;15.30;99.90
60868;DHT22;46702;48.370;10.794;2023-06-26T01:26:33;15.30;99.90
60868;DHT22;46702;48.370;10.794;2023-06-26T01:29:02;15.30;99.90
60868;DHT22;46702;48.370;10.794;2023-06-26T01:31:29;15.20;99.90
60868;DHT22;46702;48.370;10.794;2023-06-26T01:33:59;15.20;99.90
60868;DHT22;46702;48.370;10.794;2023-06-26T01:36:26;15.10;99.90
60868;DHT22;46702;48.370;10.794;2023-06-26T01:38:52;15.00;99.90
60868;DHT22;46702;48.370;10.794;2023-06-26T01:41:18;15.00;99.90
60868;DHT22;46702;48.370;10.794;2023-06-26T01:52:27;14.60;99.90
60868;DHT22;46702;48.370;10.794;2023-06-26T01:57:30;14.80;99.90
60868;DHT22;46702;48.370;10.794;2023-06-26T01:59:57;14.70;99.90
60868;DHT22;46702;48.370;10.794;2023-06-26T02:02:24;14.80;99.90
60868;DHT22;46702;48.370;10.794;2023-06-26T02:04:50;14.80;99.90
60868;DHT22;46702;48.370;10.794;2023-06-26T02:07:16;14.80;99.90
60868;DHT22;46702;48.370;10.794;2023-06-26T02:09:42;14.80;99.90
60868;DHT22;46702;48.370;10.794;2023-06-26T02:12:08;14.80;99.90
60868;DHT22;46702;48.370;10.794;2023-06-26T02:14:33;14.80;99.90
60868;DHT22;46702;48.370;10.794;2023-06-26T02:16:59;14.70;99.90
60868;DHT22;46702;48.370;10.794;2023-06-26T02:19:26;14.60;99.90
60868;DHT22;46702;48.370;10.794;2023-06-26T02:21:53;14.70;99.90
60868;DHT22;46702;48.370;10.794;2023-06-26T02:24:19;14.70;99.90
60868;DHT22;46702;48.370;10.794;2023-06-26T02:26:44;14.70;99.90
60868;DHT22;46702;48.370;10.794;2023-06-26T02:29:11;14.70;99.90
60868;DHT22;46702;48.370;10.794;2023-06-26T02:31:36;14.50;99.90
60868;DHT22;46702;48.370;10.794;2023-06-26T02:34:03;14.40;99.90
60868;DHT22;46702;48.370;10.794;2023-06-26T02:36:29;14.50;99.90
60868;DHT22;46702;48.370;10.794;2023-06-26T02:38:55;14.40;99.90
60868;DHT22;46702;48.370;10.794;2023-06-26T02:41:20;14.50;99.90
60868;DHT22;46702;48.370;10.794;2023-06-26T02:43:46;14.40;99.90
60868;DHT22;46702;48.370;10.794;2023-06-26T02:46:11;14.40;99.90
60868;DHT22;46702;48.370;10.794;2023-06-26T02:48:37;14.40;99.90
60868;DHT22;46702;48.370;10.794;2023-06-26T02:51:02;14.40;99.90
60868;DHT22;46702;48.370;10.794;2023-06-26T02:53:28;14.40;99.90
60868;DHT22;46702;48.370;10.794;2023-06-26T02:55:53;14.40;99.90
60868;DHT22;46702;48.370;10.794;2023-06-26T02:58:19;14.20;99.90
60868;DHT22;46702;48.370;10.794;2023-06-26T03:00:45;14.30;99.90
60868;DHT22;46702;48.370;10.794;2023-06-26T03:03:10;14.30;99.90
60868;DHT22;46702;48.370;10.794;2023-06-26T03:05:36;14.30;99.90
60868;DHT22;46702;48.370;10.794;2023-06-26T03:08:02;14.30;99.90
60868;DHT22;46702;48.370;10.794;2023-06-26T03:10:28;14.30;99.90
60868;DHT22;46702;48.370;10.794;2023-06-26T03:12:54;14.30;99.90
60868;DHT22;46702;48.370;10.794;2023-06-26T03:15:19;14.30;99.90
60868;DHT22;46702;48.370;10.794;2023-06-26T03:17:45;14.30;99.90
60868;DHT22;46702;48.370;10.794;2023-06-26T03:20:11;14.30;99.90
60868;DHT22;46702;48.370;10.794;2023-06-26T03:22:36;14.20;99.90
60868;DHT22;46702;48.370;10.794;2023-06-26T03:25:03;14.30;99.90
60868;DHT22;46702;48.370;10.794;2023-06-26T03:27:28;14.20;99.90
60868;DHT22;46702;48.370;10.794;2023-06-26T03:29:54;14.10;99.90
60868;DHT22;46702;48.370;10.794;2023-06-26T03:32:19;14.00;99.90
60868;DHT22;46702;48.370;10.794;2023-06-26T03:34:45;14.00;99.90
60868;DHT22;46702;48.370;10.794;2023-06-26T03:37:11;13.90;99.90
60868;DHT22;46702;48.370;10.794;2023-06-26T03:39:37;13.80;99.90
60868;DHT22;46702;48.370;10.794;2023-06-26T03:42:02;13.80;99.90
60868;DHT22;46702;48.370;10.794;2023-06-26T03:44:28;13.80;99.90
60868;DHT22;46702;48.370;10.794;2023-06-26T03:46:53;13.90;99.90
60868;DHT22;46702;48.370;10.794;2023-06-26T03:49:19;13.80;99.90
60868;DHT22;46702;48.370;10.794;2023-06-26T03:51:45;13.70;99.90
60868;DHT22;46702;48.370;10.794;2023-06-26T03:54:11;13.80;99.90
60868;DHT22;46702;48.370;10.794;2023-06-26T03:56:37;13.70;99.90
60868;DHT22;46702;48.370;10.794;2023-06-26T03:59:02;13.70;99.90
60868;DHT22;46702;48.370;10.794;2023-06-26T04:01:28;13.70;99.90
60868;DHT22;46702;48.370;10.794;2023-06-26T04:03:54;13.80;99.90
60868;DHT22;46702;48.370;10.794;2023-06-26T04:06:20;13.90;99.90
60868;DHT22;46702;48.370;10.794;2023-06-26T04:08:45;14.00;99.90
60868;DHT22;46702;48.370;10.794;2023-06-26T04:11:11;13.90;99.90
60868;DHT22;46702;48.370;10.794;2023-06-26T04:13:36;13.90;99.90
60868;DHT22;46702;48.370;10.794;2023-06-26T04:16:02;13.90;99.90
60868;DHT22;46702;48.370;10.794;2023-06-26T04:18:28;14.10;99.90
60868;DHT22;46702;48.370;10.794;2023-06-26T04:21:11;14.10;99.90
60868;DHT22;46702;48.370;10.794;2023-06-26T04:23:37;14.30;99.90
60868;DHT22;46702;48.370;10.794;2023-06-26T04:26:04;14.40;99.90
60868;DHT22;46702;48.370;10.794;2023-06-26T04:28:34;14.40;99.90
60868;DHT22;46702;48.370;10.794;2023-06-26T04:31:01;14.50;99.90
60868;DHT22;46702;48.370;10.794;2023-06-26T04:33:27;14.50;99.90
60868;DHT22;46702;48.370;10.794;2023-06-26T04:35:53;14.60;99.90
60868;DHT22;46702;48.370;10.794;2023-06-26T04:38:19;14.70;99.90
60868;DHT22;46702;48.370;10.794;2023-06-26T04:40:45;14.80;99.90
60868;DHT22;46702;48.370;10.794;2023-06-26T04:43:11;14.80;99.90
60868;DHT22;46702;48.370;10.794;2023-06-26T04:45:37;14.90;99.90
60868;DHT22;46702;48.370;10.794;2023-06-26T04:48:03;15.00;99.90
60868;DHT22;46702;48.370;10.794;2023-06-26T04:50:29;15.10;99.90
60868;DHT22;46702;48.370;10.794;2023-06-26T04:52:56;15.20;99.90
60868;DHT22;46702;48.370;10.794;2023-06-26T04:55:25;15.30;99.90
60868;DHT22;46702;48.370;10.794;2023-06-26T04:57:51;15.40;99.90
60868;DHT22;46702;48.370;10.794;2023-06-26T05:00:18;15.60;99.90
60868;DHT22;46702;48.370;10.794;2023-06-26T05:02:44;15.80;99.90
60868;DHT22;46702;48.370;10.794;2023-06-26T05:05:09;15.90;99.90
60868;DHT22;46702;48.370;10.794;2023-06-26T05:07:36;16.00;99.90
60868;DHT22;46702;48.370;10.794;2023-06-26T05:10:02;16.10;99.90
60868;DHT22;46702;48.370;10.794;2023-06-26T05:12:28;16.10;99.90
60868;DHT22;46702;48.370;10.794;2023-06-26T05:14:53;16.20;99.90
60868;DHT22;46702;48.370;10.794;2023-06-26T05:17:19;16.30;99.90
60868;DHT22;46702;48.370;10.794;2023-06-26T05:19:44;16.40;99.90
60868;DHT22;46702;48.370;10.794;2023-06-26T05:22:10;16.50;99.90
60868;DHT22;46702;48.370;10.794;2023-06-26T05:24:38;16.60;99.90
60868;DHT22;46702;48.370;10.794;2023-06-26T05:27:04;16.70;99.90
60868;DHT22;46702;48.370;10.794;2023-06-26T05:29:31;16.80;99.90
60868;DHT22;46702;48.370;10.794;2023-06-26T05:31:57;17.10;99.90
60868;DHT22;46702;48.370;10.794;2023-06-26T05:34:23;17.20;99.90
60868;DHT22;46702;48.370;10.794;2023-06-26T05:36:57;17.30;99.90
60868;DHT22;46702;48.370;10.794;2023-06-26T05:39:23;17.40;99.90
60868;DHT22;46702;48.370;10.794;2023-06-26T05:41:50;17.60;99.90
60868;DHT22;46702;48.370;10.794;2023-06-26T05:44:15;17.80;99.90
60868;DHT22;46702;48.370;10.794;2023-06-26T05:46:41;17.90;99.90
60868;DHT22;46702;48.370;10.794;2023-06-26T05:49:07;18.10;99.90
60868;DHT22;46702;48.370;10.794;2023-06-26T05:51:33;18.20;99.90
60868;DHT22;46702;48.370;10.794;2023-06-26T05:53:59;18.40;99.90
60868;DHT22;46702;48.370;10.794;2023-06-26T05:56:24;18.60;99.90
60868;DHT22;46702;48.370;10.794;2023-06-26T05:58:51;18.80;99.90
60868;DHT22;46702;48.370;10.794;2023-06-26T06:01:17;18.80;99.90
60868;DHT22;46702;48.370;10.794;2023-06-26T06:03:44;19.00;99.90
60868;DHT22;46702;48.370;10.794;2023-06-26T06:06:10;19.20;99.90
60868;DHT22;46702;48.370;10.794;2023-06-26T06:08:36;19.40;99.90
60868;DHT22;46702;48.370;10.794;2023-06-26T06:11:02;19.50;99.90
60868;DHT22;46702;48.370;10.794;2023-06-26T06:13:27;19.80;99.90
60868;DHT22;46702;48.370;10.794;2023-06-26T06:15:53;20.00;99.90
60868;DHT22;46702;48.370;10.794;2023-06-26T06:18:20;20.20;99.90
60868;DHT22;46702;48.370;10.794;2023-06-26T06:20:45;20.30;99.90
60868;DHT22;46702;48.370;10.794;2023-06-26T06:23:11;20.50;99.90
60868;DHT22;46702;48.370;10.794;2023-06-26T06:25:37;20.70;99.90
60868;DHT22;46702;48.370;10.794;2023-06-26T06:28:04;20.80;99.90
60868;DHT22;46702;48.370;10.794;2023-06-26T06:30:30;20.90;99.90
60868;DHT22;46702;48.370;10.794;2023-06-26T06:32:55;21.10;99.90
60868;DHT22;46702;48.370;10.794;2023-06-26T06:35:21;21.30;99.90
60868;DHT22;46702;48.370;10.794;2023-06-26T06:37:46;21.30;99.90
60868;DHT22;46702;48.370;10.794;2023-06-26T06:40:12;21.40;99.90
60868;DHT22;46702;48.370;10.794;2023-06-26T06:42:38;21.60;99.90
60868;DHT22;46702;48.370;10.794;2023-06-26T06:45:05;21.80;99.90
60868;DHT22;46702;48.370;10.794;2023-06-26T06:47:32;21.80;99.90
60868;DHT22;46702;48.370;10.794;2023-06-26T06:49:58;21.80;99.90
60868;DHT22;46702;48.370;10.794;2023-06-26T06:52:24;22.00;99.90
60868;DHT22;46702;48.370;10.794;2023-06-26T06:54:53;22.20;99.90
60868;DHT22;46702;48.370;10.794;2023-06-26T06:57:22;22.40;99.90
60868;DHT22;46702;48.370;10.794;2023-06-26T06:59:48;22.50;99.90
60868;DHT22;46702;48.370;10.794;2023-06-26T07:02:15;22.70;99.90
60868;DHT22;46702;48.370;10.794;2023-06-26T07:04:41;22.80;99.90
60868;DHT22;46702;48.370;10.794;2023-06-26T07:07:06;23.00;99.90
60868;DHT22;46702;48.370;10.794;2023-06-26T07:09:32;23.10;99.90
60868;DHT22;46702;48.370;10.794;2023-06-26T07:11:58;23.20;99.90
60868;DHT22;46702;48.370;10.794;2023-06-26T07:14:23;23.40;99.90
60868;DHT22;46702;48.370;10.794;2023-06-26T07:16:49;23.60;99.90
60868;DHT22;46702;48.370;10.794;2023-06-26T07:19:15;23.70;99.90
60868;DHT22;46702;48.370;10.794;2023-06-26T07:21:40;23.90;99.90
60868;DHT22;46702;48.370;10.794;2023-06-26T07:24:06;24.00;99.90
60868;DHT22;46702;48.370;10.794;2023-06-26T07:26:32;24.10;99.90
60868;DHT22;46702;48.370;10.794;2023-06-26T07:28:58;24.30;99.90
60868;DHT22;46702;48.370;10.794;2023-06-26T07:31:24;24.40;99.90
60868;DHT22;46702;48.370;10.794;2023-06-26T07:33:49;24.60;99.90
60868;DHT22;46702;48.370;10.794;2023-06-26T07:36:15;24.70;99.90
60868;DHT22;46702;48.370;10.794;2023-06-26T07:38:40;24.80;99.90
60868;DHT22;46702;48.370;10.794;2023-06-26T07:41:06;24.90;99.90
60868;DHT22;46702;48.370;10.794;2023-06-26T07:43:31;24.90;99.90
60868;DHT22;46702;48.370;10.794;2023-06-26T07:45:57;25.00;99.90
60868;DHT22;46702;48.370;10.794;2023-06-26T07:48:25;25.10;99.90
60868;DHT22;46702;48.370;10.794;2023-06-26T07:50:51;25.50;99.90
60868;DHT22;46702;48.370;10.794;2023-06-26T07:53:17;25.80;99.90
60868;DHT22;46702;48.370;10.794;2023-06-26T07:55:43;25.80;99.90
60868;DHT22;46702;48.370;10.794;2023-06-26T07:58:08;25.80;99.90
60868;DHT22;46702;48.370;10.794;2023-06-26T08:00:34;26.00;99.90
60868;DHT22;46702;48.370;10.794;2023-06-26T08:03:00;26.30;99.90
60868;DHT22;46702;48.370;10.794;2023-06-26T08:05:26;26.50;99.90
60868;DHT22;46702;48.370;10.794;2023-06-26T08:07:51;26.50;99.90
60868;DHT22;46702;48.370;10.794;2023-06-26T08:10:17;26.80;99.90
60868;DHT22;46702;48.370;10.794;2023-06-26T08:12:43;26.90;99.90
60868;DHT22;46702;48.370;10.794;2023-06-26T08:15:11;26.90;99.90
60868;DHT22;46702;48.370;10.794;2023-06-26T08:17:37;27.00;99.90
60868;DHT22;46702;48.370;10.794;2023-06-26T08:20:03;27.00;99.90
60868;DHT22;46702;48.370;10.794;2023-06-26T08:22:29;27.20;99.90
60868;DHT22;46702;48.370;10.794;2023-06-26T08:24:55;27.30;99.90
60868;DHT22;46702;48.370;10.794;2023-06-26T08:27:20;27.60;99.90
60868;DHT22;46702;48.370;10.794;2023-06-26T08:29:46;27.80;99.90
60868;DHT22;46702;48.370;10.794;2023-06-26T08:32:12;27.90;99.90
60868;DHT22;46702;48.370;10.794;2023-06-26T08:34:37;28.00;99.90
60868;DHT22;46702;48.370;10.794;2023-06-26T08:37:03;28.30;99.90
60868;DHT22;46702;48.370;10.794;2023-06-26T08:39:29;28.40;99.90
60868;DHT22;46702;48.370;10.794;2023-06-26T08:41:54;28.60;99.90
60868;DHT22;46702;48.370;10.794;2023-06-26T08:44:20;28.60;99.90
60868;DHT22;46702;48.370;10.794;2023-06-26T08:46:50;28.70;99.90
60868;DHT22;46702;48.370;10.794;2023-06-26T08:52:10;28.90;99.90
60868;DHT22;46702;48.370;10.794;2023-06-26T08:54:43;28.80;99.90
60868;DHT22;46702;48.370;10.794;2023-06-26T08:57:11;28.90;99.90
60868;DHT22;46702;48.370;10.794;2023-06-26T08:59:37;29.20;99.90
60868;DHT22;46702;48.370;10.794;2023-06-26T09:02:04;29.20;99.90
60868;DHT22;46702;48.370;10.794;2023-06-26T09:04:30;29.50;99.90
60868;DHT22;46702;48.370;10.794;2023-06-26T09:06:56;29.70;99.90
60868;DHT22;46702;48.370;10.794;2023-06-26T09:09:21;30.10;99.90
60868;DHT22;46702;48.370;10.794;2023-06-26T09:11:47;29.60;99.90
60868;DHT22;46702;48.370;10.794;2023-06-26T09:14:13;29.70;99.90
60868;DHT22;46702;48.370;10.794;2023-06-26T09:16:40;30.00;99.90
60868;DHT22;46702;48.370;10.794;2023-06-26T09:19:11;30.00;99.90
60868;DHT22;46702;48.370;10.794;2023-06-26T09:21:41;30.10;99.90
60868;DHT22;46702;48.370;10.794;2023-06-26T09:24:08;30.30;99.90
60868;DHT22;46702;48.370;10.794;2023-06-26T09:26:39;29.90;99.90
60868;DHT22;46702;48.370;10.794;2023-06-26T09:29:05;29.80;99.90
60868;DHT22;46702;48.370;10.794;2023-06-26T09:31:33;29.50;99.90
60868;DHT22;46702;48.370;10.794;2023-06-26T09:33:59;29.70;99.90
60868;DHT22;46702;48.370;10.794;2023-06-26T09:36:28;30.00;99.90
60868;DHT22;46702;48.370;10.794;2023-06-26T09:38:54;30.00;99.90
60868;DHT22;46702;48.370;10.794;2023-06-26T09:41:20;29.70;99.90
60868;DHT22;46702;48.370;10.794;2023-06-26T09:43:49;29.70;99.90
60868;DHT22;46702;48.370;10.794;2023-06-26T09:46:26;29.80;99.90
60868;DHT22;46702;48.370;10.794;2023-06-26T09:49:08;29.60;99.90
60868;DHT22;46702;48.370;10.794;2023-06-26T09:51:37;29.80;99.90
60868;DHT22;46702;48.370;10.794;2023-06-26T09:54:04;29.80;99.90
60868;DHT22;46702;48.370;10.794;2023-06-26T09:56:31;30.00;99.90
60868;DHT22;46702;48.370;10.794;2023-06-26T09:58:58;30.20;99.90
60868;DHT22;46702;48.370;10.794;2023-06-26T10:01:25;30.30;99.90
60868;DHT22;46702;48.370;10.794;2023-06-26T10:03:50;29.80;99.90
60868;DHT22;46702;48.370;10.794;2023-06-26T10:06:20;29.80;99.90
60868;DHT22;46702;48.370;10.794;2023-06-26T10:08:48;30.00;99.90
60868;DHT22;46702;48.370;10.794;2023-06-26T10:11:16;30.40;99.90
60868;DHT22;46702;48.370;10.794;2023-06-26T10:13:45;30.40;99.90
60868;DHT22;46702;48.370;10.794;2023-06-26T10:16:13;30.60;99.90
60868;DHT22;46702;48.370;10.794;2023-06-26T10:18:42;30.80;99.90
60868;DHT22;46702;48.370;10.794;2023-06-26T10:21:09;30.90;99.90
60868;DHT22;46702;48.370;10.794;2023-06-26T10:23:36;30.90;99.90
60868;DHT22;46702;48.370;10.794;2023-06-26T10:26:06;31.10;99.90
60868;DHT22;46702;48.370;10.794;2023-06-26T10:28:33;31.10;99.90
60868;DHT22;46702;48.370;10.794;2023-06-26T10:31:00;30.80;99.90
60868;DHT22;46702;48.370;10.794;2023-06-26T10:33:26;30.90;99.90
60868;DHT22;46702;48.370;10.794;2023-06-26T10:35:53;31.20;99.90
60868;DHT22;46702;48.370;10.794;2023-06-26T10:38:18;31.20;99.90
60868;DHT22;46702;48.370;10.794;2023-06-26T10:40:47;31.30;99.90
60868;DHT22;46702;48.370;10.794;2023-06-26T10:43:17;31.50;99.90
60868;DHT22;46702;48.370;10.794;2023-06-26T10:45:48;31.50;99.90
60868;DHT22;46702;48.370;10.794;2023-06-26T10:48:22;31.30;99.90
60868;DHT22;46702;48.370;10.794;2023-06-26T10:50:48;30.80;99.90
60868;DHT22;46702;48.370;10.794;2023-06-26T10:56:04;31.00;99.90
60868;DHT22;46702;48.370;10.794;2023-06-26T11:03:41;30.60;99.90
60868;DHT22;46702;48.370;10.794;2023-06-26T11:06:20;30.60;99.90
60868;DHT22;46702;48.370;10.794;2023-06-26T11:08:47;30.70;99.90
60868;DHT22;46702;48.370;10.794;2023-06-26T11:11:13;30.70;99.90
60868;DHT22;46702;48.370;10.794;2023-06-26T11:13:39;30.90;99.90
60868;DHT22;46702;48.370;10.794;2023-06-26T11:16:05;30.80;99.90
60868;DHT22;46702;48.370;10.794;2023-06-26T11:18:32;31.10;99.90
60868;DHT22;46702;48.370;10.794;2023-06-26T11:21:11;31.20;99.90
60868;DHT22;46702;48.370;10.794;2023-06-26T11:23:39;31.20;99.90
60868;DHT22;46702;48.370;10.794;2023-06-26T11:28:46;31.10;99.90
60868;DHT22;46702;48.370;10.794;2023-06-26T11:31:27;31.50;99.90
60868;DHT22;46702;48.370;10.794;2023-06-26T11:33:54;31.70;99.90
60868;DHT22;46702;48.370;10.794;2023-06-26T11:36:23;31.30;99.90
60868;DHT22;46702;48.370;10.794;2023-06-26T11:38:57;30.90;99.90
60868;DHT22;46702;48.370;10.794;2023-06-26T11:41:26;31.30;99.90
60868;DHT22;46702;48.370;10.794;2023-06-26T11:43:53;31.10;99.90
60868;DHT22;46702;48.370;10.794;2023-06-26T11:46:20;30.90;99.90
60868;DHT22;46702;48.370;10.794;2023-06-26T11:48:46;30.50;99.90
60868;DHT22;46702;48.370;10.794;2023-06-26T11:51:13;30.40;99.90
60868;DHT22;46702;48.370;10.794;2023-06-26T11:53:43;30.20;99.90
60868;DHT22;46702;48.370;10.794;2023-06-26T11:56:10;30.70;99.90
60868;DHT22;46702;48.370;10.794;2023-06-26T12:01:36;31.20;99.90
60868;DHT22;46702;48.370;10.794;2023-06-26T12:04:09;31.10;99.90
60868;DHT22;46702;48.370;10.794;2023-06-26T12:06:37;31.00;99.90
60868;DHT22;46702;48.370;10.794;2023-06-26T12:09:06;31.10;99.90
60868;DHT22;46702;48.370;10.794;2023-06-26T12:11:33;31.20;99.90
60868;DHT22;46702;48.370;10.794;2023-06-26T12:14:00;31.40;99.90
60868;DHT22;46702;48.370;10.794;2023-06-26T12:16:28;31.30;99.90
60868;DHT22;46702;48.370;10.794;2023-06-26T12:19:01;31.40;99.90
60868;DHT22;46702;48.370;10.794;2023-06-26T12:21:48;31.40;99.90
60868;DHT22;46702;48.370;10.794;2023-06-26T12:24:19;31.30;99.90
60868;DHT22;46702;48.370;10.794;2023-06-26T12:26:46;31.10;99.90
60868;DHT22;46702;48.370;10.794;2023-06-26T12:29:15;30.70;99.90
60868;DHT22;46702;48.370;10.794;2023-06-26T12:31:50;31.10;99.90
60868;DHT22;46702;48.370;10.794;2023-06-26T12:34:25;31.50;99.90
60868;DHT22;46702;48.370;10.794;2023-06-26T12:36:51;31.40;99.90
60868;DHT22;46702;48.370;10.794;2023-06-26T12:39:18;31.80;99.90
60868;DHT22;46702;48.370;10.794;2023-06-26T12:41:53;31.60;99.90
60868;DHT22;46702;48.370;10.794;2023-06-26T12:44:26;31.70;99.90
60868;DHT22;46702;48.370;10.794;2023-06-26T12:46:58;31.70;99.90
60868;DHT22;46702;48.370;10.794;2023-06-26T12:49:34;31.60;99.90
60868;DHT22;46702;48.370;10.794;2023-06-26T12:52:01;31.80;99.90
60868;DHT22;46702;48.370;10.794;2023-06-26T12:54:28;31.50;99.90
60868;DHT22;46702;48.370;10.794;2023-06-26T12:56:53;31.00;99.90
60868;DHT22;46702;48.370;10.794;2023-06-26T12:59:20;30.60;99.90
60868;DHT22;46702;48.370;10.794;2023-06-26T13:01:46;31.00;99.90
60868;DHT22;46702;48.370;10.794;2023-06-26T13:04:11;31.30;99.90
60868;DHT22;46702;48.370;10.794;2023-06-26T13:06:37;31.50;99.90
60868;DHT22;46702;48.370;10.794;2023-06-26T13:09:03;31.60;99.90
60868;DHT22;46702;48.370;10.794;2023-06-26T13:11:32;31.90;99.90
60868;DHT22;46702;48.370;10.794;2023-06-26T13:13:58;32.00;99.90
60868;DHT22;46702;48.370;10.794;2023-06-26T13:16:24;31.80;99.90
60868;DHT22;46702;48.370;10.794;2023-06-26T13:18:49;31.50;99.90
60868;DHT22;46702;48.370;10.794;2023-06-26T13:21:17;31.60;99.90
60868;DHT22;46702;48.370;10.794;2023-06-26T13:23:43;31.60;99.90
60868;DHT22;46702;48.370;10.794;2023-06-26T13:26:09;31.60;99.90
60868;DHT22;46702;48.370;10.794;2023-06-26T13:28:35;31.90;99.90
60868;DHT22;46702;48.370;10.794;2023-06-26T13:31:00;32.10;99.90
60868;DHT22;46702;48.370;10.794;2023-06-26T13:33:26;32.60;99.90
60868;DHT22;46702;48.370;10.794;2023-06-26T13:35:52;32.90;99.90
60868;DHT22;46702;48.370;10.794;2023-06-26T13:38:21;33.00;99.90
60868;DHT22;46702;48.370;10.794;2023-06-26T13:40:56;33.00;99.90
60868;DHT22;46702;48.370;10.794;2023-06-26T13:43:28;32.90;99.90
60868;DHT22;46702;48.370;10.794;2023-06-26T13:45:55;32.30;99.90
60868;DHT22;46702;48.370;10.794;2023-06-26T13:48:21;31.70;99.90
60868;DHT22;46702;48.370;10.794;2023-06-26T13:50:47;31.50;99.90
60868;DHT22;46702;48.370;10.794;2023-06-26T13:53:13;31.90;99.90
60868;DHT22;46702;48.370;10.794;2023-06-26T13:55:40;31.90;99.90
60868;DHT22;46702;48.370;10.794;2023-06-26T13:58:06;31.40;99.90
60868;DHT22;46702;48.370;10.794;2023-06-26T14:00:32;31.30;99.90
60868;DHT22;46702;48.370;10.794;2023-06-26T14:02:59;31.20;99.90
60868;DHT22;46702;48.370;10.794;2023-06-26T14:05:25;30.90;99.90
60868;DHT22;46702;48.370;10.794;2023-06-26T14:07:51;30.90;99.90
60868;DHT22;46702;48.370;10.794;2023-06-26T14:10:16;30.90;99.90
60868;DHT22;46702;48.370;10.794;2023-06-26T14:12:42;30.80;99.90
60868;DHT22;46702;48.370;10.794;2023-06-26T14:15:10;30.80;99.90
60868;DHT22;46702;48.370;10.794;2023-06-26T14:17:36;31.10;99.90
60868;DHT22;46702;48.370;10.794;2023-06-26T14:20:06;31.20;99.90
60868;DHT22;46702;48.370;10.794;2023-06-26T14:22:34;31.40;99.90
60868;DHT22;46702;48.370;10.794;2023-06-26T14:24:59;31.50;99.90
60868;DHT22;46702;48.370;10.794;2023-06-26T14:27:25;31.70;99.90
60868;DHT22;46702;48.370;10.794;2023-06-26T14:29:51;31.50;99.90
60868;DHT22;46702;48.370;10.794;2023-06-26T14:32:16;31.60;99.90
60868;DHT22;46702;48.370;10.794;2023-06-26T14:34:42;31.80;99.90
60868;DHT22;46702;48.370;10.794;2023-06-26T14:37:07;31.60;99.90
60868;DHT22;46702;48.370;10.794;2023-06-26T14:39:33;31.60;99.90
60868;DHT22;46702;48.370;10.794;2023-06-26T14:41:59;31.50;99.90
60868;DHT22;46702;48.370;10.794;2023-06-26T14:44:24;31.70;99.90
60868;DHT22;46702;48.370;10.794;2023-06-26T14:46:50;32.20;99.90
60868;DHT22;46702;48.370;10.794;2023-06-26T14:49:16;32.30;99.90
60868;DHT22;46702;48.370;10.794;2023-06-26T14:51:41;32.10;99.90
60868;DHT22;46702;48.370;10.794;2023-06-26T14:54:07;32.10;99.90
60868;DHT22;46702;48.370;10.794;2023-06-26T14:56:34;32.00;99.90
60868;DHT22;46702;48.370;10.794;2023-06-26T14:58:59;31.80;99.90
60868;DHT22;46702;48.370;10.794;2023-06-26T15:01:25;31.90;99.90
60868;DHT22;46702;48.370;10.794;2023-06-26T15:03:50;32.10;99.90
60868;DHT22;46702;48.370;10.794;2023-06-26T15:06:16;32.10;99.90
60868;DHT22;46702;48.370;10.794;2023-06-26T15:08:42;31.80;99.90
60868;DHT22;46702;48.370;10.794;2023-06-26T15:11:07;31.60;99.90
60868;DHT22;46702;48.370;10.794;2023-06-26T15:13:33;31.50;99.90
60868;DHT22;46702;48.370;10.794;2023-06-26T15:15:58;31.20;99.90
60868;DHT22;46702;48.370;10.794;2023-06-26T15:18:24;31.10;99.90
60868;DHT22;46702;48.370;10.794;2023-06-26T15:20:49;30.70;99.90
60868;DHT22;46702;48.370;10.794;2023-06-26T15:23:15;30.30;99.90
60868;DHT22;46702;48.370;10.794;2023-06-26T15:25:41;30.20;99.90
60868;DHT22;46702;48.370;10.794;2023-06-26T15:28:06;30.10;99.90
60868;DHT22;46702;48.370;10.794;2023-06-26T15:30:32;30.00;99.90
60868;DHT22;46702;48.370;10.794;2023-06-26T15:32:58;29.60;99.90
60868;DHT22;46702;48.370;10.794;2023-06-26T15:35:24;29.40;99.90
60868;DHT22;46702;48.370;10.794;2023-06-26T15:37:50;29.10;99.90
60868;DHT22;46702;48.370;10.794;2023-06-26T15:40:16;28.90;99.90